createdAt,value
2022-12-25T00:00:02.007Z,100364.22
2022-12-25T00:02:30.866Z,100341.06
2022-12-25T00:04:58.375Z,100381.47
2022-12-25T00:07:25.763Z,100371.16
2022-12-25T00:09:53.160Z,100353.28
2022-12-25T00:12:22.199Z,100381.53
2022-12-25T00:14:49.620Z,100381.69
2022-12-25T00:17:16.996Z,100325.16
2022-12-25T00:19:45.682Z,100394.78
2022-12-25T00:22:13.061Z,100364.72
2022-12-25T00:24:40.671Z,100401.75
2022-12-25T00:27:08.044Z,100400.22
2022-12-25T00:29:35.598Z,100236.88
2022-12-25T00:32:02.990Z,100411.63
2022-12-25T00:34:30.391Z,100430.03
2022-12-25T00:36:59.110Z,100394.50
2022-12-25T00:39:26.589Z,100416.88
2022-12-25T00:42:11.883Z,100418.50
2022-12-25T00:44:39.246Z,100422.88
2022-12-25T00:47:06.696Z,100430.06
2022-12-25T00:51:54.988Z,100431.69
2022-12-25T00:54:23.679Z,100444.09
2022-12-25T00:56:51.043Z,100442.34
2022-12-25T00:59:18.421Z,100449.28
2022-12-25T01:01:45.862Z,100444.97
2022-12-25T01:04:13.369Z,100448.47
2022-12-25T01:06:40.819Z,100386.56
2022-12-25T01:09:25.533Z,100446.75
2022-12-25T01:11:54.225Z,100437.97
2022-12-25T01:14:21.641Z,100433.59
2022-12-25T01:16:49.030Z,100426.56
2022-12-25T01:19:16.414Z,100426.63
2022-12-25T01:21:43.816Z,100425.84
2022-12-25T01:24:11.207Z,100423.25
2022-12-25T01:26:38.891Z,100430.31
2022-12-25T01:29:07.585Z,100424.22
2022-12-25T01:31:34.973Z,100437.44
2022-12-25T01:34:02.457Z,100441.03
2022-12-25T01:36:29.832Z,100440.19
2022-12-25T01:38:57.250Z,100434.13
2022-12-25T01:41:25.208Z,100363.47
2022-12-25T01:44:04.082Z,100344.59
2022-12-25T01:46:32.766Z,100421.84
2022-12-25T01:49:01.815Z,100418.28
2022-12-25T01:51:30.856Z,100359.88
2022-12-25T01:53:58.967Z,100352.09
2022-12-25T01:56:26.359Z,100431.53
2022-12-25T01:58:53.847Z,100426.38
2022-12-25T02:01:21.385Z,100410.91
2022-12-25T02:03:50.156Z,100428.06
2022-12-25T02:06:17.527Z,100426.28
2022-12-25T02:08:45.575Z,100438.56
2022-12-25T02:11:32.934Z,100438.56
2022-12-25T02:14:00.348Z,100432.44
2022-12-25T02:16:29.117Z,100406.63
2022-12-25T02:18:59.328Z,100439.56
2022-12-25T02:21:31.338Z,100438.72
2022-12-25T02:24:29.798Z,100437.72
2022-12-25T02:27:04.174Z,100411.06
2022-12-25T02:29:34.298Z,100435.06
2022-12-25T02:32:02.928Z,100436.88
2022-12-25T02:34:32.635Z,100444.75
2022-12-25T02:37:03.474Z,100461.47
2022-12-25T02:39:51.262Z,100458.75
2022-12-25T02:42:20.490Z,100409.66
2022-12-25T02:45:07.026Z,100441.44
2022-12-25T02:47:52.358Z,100413.03
2022-12-25T02:50:37.629Z,100429.47
2022-12-25T02:53:23.007Z,100454.34
2022-12-25T02:56:08.358Z,100440.66
2022-12-25T02:58:50.105Z,100413.88
2022-12-25T03:01:37.776Z,100440.38
2022-12-25T03:04:24.520Z,100432.53
2022-12-25T03:07:00.671Z,100440.44
2022-12-25T03:09:46.652Z,100439.78
2022-12-25T03:12:16.403Z,100426.13
2022-12-25T03:15:01.775Z,100456.28
2022-12-25T03:17:30.985Z,100452.84
2022-12-25T03:20:16.058Z,100448.50
2022-12-25T03:23:00.842Z,100443.25
2022-12-25T03:25:45.787Z,100444.16
2022-12-25T03:28:13.163Z,100445.91
2022-12-25T03:31:11.796Z,100407.88
2022-12-25T03:34:08.652Z,100425.75
2022-12-25T03:36:40.513Z,100419.13
2022-12-25T03:39:28.434Z,100422.50
2022-12-25T03:42:16.200Z,100392.50
2022-12-25T03:45:05.942Z,100432.13
2022-12-25T03:48:06.998Z,100410.78
2022-12-25T03:50:55.126Z,100443.66
2022-12-25T03:53:42.551Z,100429.72
2022-12-25T03:56:27.409Z,100434.94
2022-12-25T03:59:17.783Z,100422.84
2022-12-25T04:02:06.658Z,100439.41
2022-12-25T04:04:51.921Z,100438.53
2022-12-25T04:07:38.374Z,100442.97
2022-12-25T04:10:24.679Z,100438.63
2022-12-25T04:13:09.523Z,100429.03
2022-12-25T04:15:54.326Z,100428.16
2022-12-25T04:18:39.339Z,100430.75
2022-12-25T04:21:24.548Z,100422.06
2022-12-25T04:24:11.234Z,100413.34
2022-12-25T04:26:56.063Z,100415.97
2022-12-25T04:29:41.010Z,100409.84
2022-12-25T04:32:25.879Z,100392.59
2022-12-25T04:35:10.564Z,100394.09
2022-12-25T04:37:37.948Z,100390.53
2022-12-25T04:40:07.999Z,100377.44
2022-12-25T04:42:35.379Z,100392.38
2022-12-25T04:45:02.768Z,100391.50
2022-12-25T04:47:30.131Z,100385.34
2022-12-25T04:49:57.525Z,100380.03
2022-12-25T04:52:24.920Z,100368.78
2022-12-25T04:54:52.298Z,100378.31
2022-12-25T04:57:20.971Z,100373.94
2022-12-25T04:59:48.371Z,100367.81
2022-12-25T05:02:15.825Z,100361.69
2022-12-25T05:04:43.313Z,100348.56
2022-12-25T05:07:10.706Z,100352.09
2022-12-25T05:09:41.559Z,100371.34
2022-12-25T05:12:08.974Z,100379.19
2022-12-25T05:14:37.688Z,100379.19
2022-12-25T05:17:05.052Z,100368.69
2022-12-25T05:19:32.612Z,100363.44
2022-12-25T05:22:00.010Z,100362.56
2022-12-25T05:24:27.621Z,100321.44
2022-12-25T05:26:55.008Z,100375.78
2022-12-25T05:29:22.397Z,100380.06
2022-12-25T05:31:51.198Z,100379.19
2022-12-25T05:34:18.622Z,100378.38
2022-12-25T05:36:46.019Z,100378.38
2022-12-25T05:39:13.406Z,100389.75
2022-12-25T05:41:41.204Z,100374.13
2022-12-25T05:44:08.605Z,100381.00
2022-12-25T05:46:36.150Z,100384.50
2022-12-25T05:49:05.555Z,100369.75
2022-12-25T05:52:33.796Z,100374.03
2022-12-25T05:55:01.321Z,100356.97
2022-12-25T05:57:29.212Z,100343.94
2022-12-25T05:59:56.621Z,100372.28
2022-12-25T06:02:24.405Z,100374.03
2022-12-25T06:04:53.296Z,100353.00
2022-12-25T06:07:20.689Z,100355.69
2022-12-25T06:09:48.402Z,100357.41
2022-12-25T06:12:15.789Z,100345.13
2022-12-25T06:14:43.186Z,100350.38
2022-12-25T06:17:10.572Z,100339.28
2022-12-25T06:19:38.152Z,100348.66
2022-12-25T06:22:06.856Z,100355.59
2022-12-25T06:24:34.822Z,100352.97
2022-12-25T06:27:02.353Z,100352.09
2022-12-25T06:29:29.769Z,100343.34
2022-12-25T06:31:58.830Z,100341.63
2022-12-25T06:34:27.020Z,100333.69
2022-12-25T06:36:54.431Z,100340.72
2022-12-25T06:39:25.312Z,100341.59
2022-12-25T06:41:52.756Z,100335.41
2022-12-25T06:44:20.175Z,100337.25
2022-12-25T06:46:47.698Z,100330.22
2022-12-25T06:49:15.080Z,100340.66
2022-12-25T06:51:42.467Z,100340.66
2022-12-25T06:54:09.876Z,100340.66
2022-12-25T06:56:38.587Z,100345.09
2022-12-25T06:59:07.018Z,100337.28
2022-12-25T07:01:35.508Z,100344.13
2022-12-25T07:04:03.708Z,100330.94
2022-12-25T07:06:31.180Z,100325.19
2022-12-25T07:08:58.568Z,100340.56
2022-12-25T07:11:26.014Z,100330.25
2022-12-25T07:13:54.717Z,100338.09
2022-12-25T07:16:22.154Z,100337.16
2022-12-25T07:18:49.568Z,100332.75
2022-12-25T07:21:18.010Z,100327.53
2022-12-25T07:23:45.841Z,100264.63
2022-12-25T07:26:13.453Z,100313.56
2022-12-25T07:28:40.934Z,100293.84
2022-12-25T07:31:11.971Z,100255.84
2022-12-25T07:33:39.412Z,100312.63
2022-12-25T07:36:07.671Z,100304.81
2022-12-25T07:38:40.234Z,100303.00
2022-12-25T07:41:08.765Z,100299.50
2022-12-25T07:43:36.167Z,100303.88
2022-12-25T07:46:03.737Z,100293.38
2022-12-25T07:48:32.509Z,100290.69
2022-12-25T07:51:00.310Z,100266.56
2022-12-25T07:53:27.698Z,100284.66
2022-12-25T07:56:01.226Z,100283.69
2022-12-25T07:58:28.701Z,100275.94
2022-12-25T08:00:56.368Z,100295.94
2022-12-25T08:03:24.000Z,100301.22
2022-12-25T08:05:52.845Z,100295.94
2022-12-25T08:08:20.234Z,100279.34
2022-12-25T08:10:48.022Z,100266.38
2022-12-25T08:13:15.427Z,100281.94
2022-12-25T08:15:42.898Z,100277.50
2022-12-25T08:18:10.407Z,100274.09
2022-12-25T08:20:37.817Z,100283.75
2022-12-25T08:23:06.591Z,100239.72
2022-12-25T08:25:34.041Z,100255.28
2022-12-25T08:28:01.853Z,100272.31
2022-12-25T08:30:29.395Z,100277.50
2022-12-25T08:32:56.839Z,100273.19
2022-12-25T08:35:25.995Z,100275.81
2022-12-25T08:37:53.363Z,100260.53
2022-12-25T08:40:22.064Z,100300.28
2022-12-25T08:42:49.446Z,100306.38
2022-12-25T08:45:16.867Z,100308.94
2022-12-25T08:47:44.295Z,100308.06
2022-12-25T08:50:11.699Z,100297.56
2022-12-25T08:52:39.443Z,100296.72
2022-12-25T08:55:08.284Z,100287.97
2022-12-25T08:57:36.989Z,100288.78
2022-12-25T09:00:04.931Z,100294.00
2022-12-25T09:02:32.870Z,100280.00
2022-12-25T09:05:00.363Z,100238.50
2022-12-25T09:07:27.773Z,100259.84
2022-12-25T09:09:55.215Z,100253.06
2022-12-25T09:12:22.611Z,100273.03
2022-12-25T09:14:51.325Z,100272.16
2022-12-25T09:17:19.491Z,100267.69
2022-12-25T09:19:46.881Z,100270.34
2022-12-25T09:22:14.342Z,100274.00
2022-12-25T09:24:43.577Z,100276.59
2022-12-25T09:27:11.039Z,100280.91
2022-12-25T09:29:38.946Z,100274.75
2022-12-25T09:32:08.380Z,100217.81
2022-12-25T09:34:35.794Z,100275.63
2022-12-25T09:37:03.227Z,100241.06
2022-12-25T09:39:30.648Z,100271.19
2022-12-25T09:41:59.815Z,100261.47
2022-12-25T09:44:28.871Z,100262.28
2022-12-25T09:46:57.693Z,100226.00
2022-12-25T09:49:28.838Z,100243.94
2022-12-25T09:51:58.085Z,100246.50
2022-12-25T09:54:28.660Z,100223.47
2022-12-25T09:56:56.082Z,100240.22
2022-12-25T09:59:25.394Z,100239.44
2022-12-25T10:02:11.429Z,100235.94
2022-12-25T10:04:49.433Z,100231.63
2022-12-25T10:07:19.629Z,100222.81
2022-12-25T10:09:53.329Z,100177.19
2022-12-25T10:12:27.160Z,100216.59
2022-12-25T10:15:03.180Z,100202.56
2022-12-25T10:17:36.315Z,100161.13
2022-12-25T10:20:08.459Z,100182.25
2022-12-25T10:22:37.199Z,100157.56
2022-12-25T10:25:06.752Z,100171.44
2022-12-25T10:27:36.114Z,100197.09
2022-12-25T10:30:07.499Z,100197.09
2022-12-25T10:32:34.916Z,100182.09
2022-12-25T10:35:02.309Z,100173.34
2022-12-25T10:37:31.046Z,100166.28
2022-12-25T10:39:58.454Z,100162.94
2022-12-25T10:42:31.712Z,100149.13
2022-12-25T10:44:59.676Z,100175.91
2022-12-25T10:47:29.075Z,100174.06
2022-12-25T10:49:56.457Z,100182.00
2022-12-25T10:52:24.829Z,100145.06
2022-12-25T10:54:53.694Z,100149.38
2022-12-25T10:57:22.485Z,100140.06
2022-12-25T10:59:50.572Z,100182.88
2022-12-25T11:02:21.149Z,100177.56
2022-12-25T11:04:48.793Z,100170.53
2022-12-25T11:07:22.752Z,100173.13
2022-12-25T11:09:51.200Z,100174.81
2022-12-25T11:12:20.620Z,100133.63
2022-12-25T11:14:54.202Z,100175.69
2022-12-25T11:17:23.139Z,100170.50
2022-12-25T11:19:53.090Z,100173.97
2022-12-25T11:22:20.537Z,100166.13
2022-12-25T11:24:47.935Z,100157.47
2022-12-25T11:27:25.662Z,100154.66
2022-12-25T11:29:55.120Z,100159.16
2022-12-25T11:32:24.342Z,100162.59
2022-12-25T11:34:51.749Z,100152.94
2022-12-25T11:37:21.152Z,100123.00
2022-12-25T11:39:48.536Z,100119.34
2022-12-25T11:42:18.052Z,100153.75
2022-12-25T11:44:48.044Z,100144.47
2022-12-25T11:47:18.377Z,100153.78
2022-12-25T11:49:50.214Z,100116.50
2022-12-25T11:52:18.399Z,100100.06
2022-12-25T11:54:49.085Z,100086.00
2022-12-25T11:57:16.489Z,100116.06
2022-12-25T11:59:49.705Z,100075.69
2022-12-25T12:02:22.934Z,100114.31
2022-12-25T12:04:51.876Z,100096.78
2022-12-25T12:07:21.687Z,100054.47
2022-12-25T12:09:49.983Z,100078.38
2022-12-25T12:12:19.517Z,100037.28
2022-12-25T12:14:51.766Z,100033.78
2022-12-25T12:17:19.223Z,100065.25
2022-12-25T12:19:46.722Z,100026.31
2022-12-25T12:22:20.258Z,100025.38
2022-12-25T12:24:47.743Z,100045.91
2022-12-25T12:27:20.497Z,100048.53
2022-12-25T12:29:51.108Z,100041.47
2022-12-25T12:32:28.971Z,100046.72
2022-12-25T12:34:56.333Z,100037.03
2022-12-25T12:37:26.287Z,100025.81
2022-12-25T12:39:54.291Z,100030.94
2022-12-25T12:42:25.840Z,100026.63
2022-12-25T12:44:54.721Z,100027.41
2022-12-25T12:47:30.009Z,100018.59
2022-12-25T12:49:58.526Z,100011.63
2022-12-25T12:52:26.897Z,99980.88
2022-12-25T12:54:57.283Z,99998.28
2022-12-25T12:57:26.821Z,99985.22
2022-12-25T12:59:55.766Z,100008.94
2022-12-25T13:02:39.000Z,100005.38
2022-12-25T13:05:06.716Z,99982.34
2022-12-25T13:07:44.239Z,99998.41
2022-12-25T13:10:21.082Z,99999.28
2022-12-25T13:12:52.885Z,99998.41
2022-12-25T13:15:21.756Z,99950.94
2022-12-25T13:17:50.008Z,99979.16
2022-12-25T13:20:20.927Z,99968.63
2022-12-25T13:22:52.769Z,99967.81
2022-12-25T13:25:21.672Z,99926.50
2022-12-25T13:27:55.858Z,99913.53
2022-12-25T13:30:25.765Z,99938.81
2022-12-25T13:32:53.457Z,99933.56
2022-12-25T13:35:21.092Z,99944.09
2022-12-25T13:37:48.489Z,99931.84
2022-12-25T13:40:21.812Z,99925.69
2022-12-25T13:42:48.258Z,99927.38
2022-12-25T13:45:23.697Z,99922.06
2022-12-25T13:47:55.425Z,99917.69
2022-12-25T13:50:24.551Z,99885.00
2022-12-25T13:52:52.003Z,99912.47
2022-12-25T13:55:20.199Z,99878.34
2022-12-25T13:57:51.352Z,99916.88
2022-12-25T14:00:20.263Z,99897.53
2022-12-25T14:02:47.788Z,99872.91
2022-12-25T14:05:25.175Z,99889.72
2022-12-25T14:07:53.042Z,99847.66
2022-12-25T14:10:20.905Z,99897.53
2022-12-25T14:12:50.034Z,99901.97
2022-12-25T14:15:20.273Z,99889.25
2022-12-25T14:17:47.743Z,99890.69
2022-12-25T14:20:24.604Z,99866.59
2022-12-25T14:22:52.118Z,99871.25
2022-12-25T14:25:20.937Z,99852.84
2022-12-25T14:27:49.555Z,99865.16
2022-12-25T14:30:18.054Z,99858.97
2022-12-25T14:32:46.223Z,99850.22
2022-12-25T14:35:18.194Z,99849.31
2022-12-25T14:37:50.080Z,99818.69
2022-12-25T14:40:22.477Z,99857.22
2022-12-25T14:42:55.496Z,99846.69
2022-12-25T14:45:28.108Z,99847.59
2022-12-25T14:47:56.384Z,99854.59
2022-12-25T14:50:28.392Z,99821.91
2022-12-25T14:52:57.134Z,99847.53
2022-12-25T14:55:25.243Z,99830.50
2022-12-25T14:57:53.875Z,99790.81
2022-12-25T15:00:23.260Z,99820.97
2022-12-25T15:02:51.068Z,99848.41
2022-12-25T15:05:35.185Z,99787.09
2022-12-25T15:08:19.082Z,99833.50
2022-12-25T15:10:59.799Z,99823.16
2022-12-25T15:13:28.374Z,99825.66
2022-12-25T15:15:58.179Z,99833.50
2022-12-25T15:18:26.442Z,99797.50
2022-12-25T15:20:54.742Z,99822.09
2022-12-25T15:23:25.236Z,99825.66
2022-12-25T15:25:52.693Z,99820.34
2022-12-25T15:28:20.072Z,99815.09
2022-12-25T15:30:47.610Z,99816.84
2022-12-25T15:33:15.572Z,99819.41
2022-12-25T15:35:44.238Z,99824.66
2022-12-25T15:38:12.174Z,99825.53
2022-12-25T15:40:41.181Z,99809.75
2022-12-25T15:43:20.888Z,99808.91
2022-12-25T15:45:56.034Z,99804.50
2022-12-25T15:48:23.428Z,99795.75
2022-12-25T15:50:50.829Z,99811.53
2022-12-25T15:53:18.227Z,99804.50
2022-12-25T15:55:46.935Z,99805.34
2022-12-25T15:58:15.036Z,99791.81
2022-12-25T16:00:42.477Z,99784.75
2022-12-25T16:03:10.138Z,99773.59
2022-12-25T16:05:37.681Z,99796.56
2022-12-25T16:08:05.423Z,99803.56
2022-12-25T16:10:38.422Z,99797.38
2022-12-25T16:13:07.518Z,99795.56
2022-12-25T16:15:34.934Z,99797.38
2022-12-25T16:18:02.329Z,99798.25
2022-12-25T16:20:29.710Z,99795.63
2022-12-25T16:22:57.110Z,99796.50
2022-12-25T16:25:24.922Z,99789.44
2022-12-25T16:27:52.292Z,99792.94
2022-12-25T16:30:21.265Z,99789.38
2022-12-25T16:32:49.783Z,99740.56
2022-12-25T16:35:17.603Z,99781.56
2022-12-25T16:37:45.012Z,99785.97
2022-12-25T16:40:12.619Z,99779.78
2022-12-25T16:42:40.223Z,99775.41
2022-12-25T16:45:08.236Z,99773.59
2022-12-25T16:47:36.941Z,99769.28
2022-12-25T16:50:04.796Z,99771.91
2022-12-25T16:52:32.667Z,99730.72
2022-12-25T16:55:00.185Z,99766.59
2022-12-25T16:57:28.486Z,99767.50
2022-12-25T16:59:55.884Z,99765.72
2022-12-25T17:02:23.471Z,99760.47
2022-12-25T17:04:52.303Z,99756.00
2022-12-25T17:07:19.690Z,99759.56
2022-12-25T17:09:48.187Z,99749.03
2022-12-25T17:12:15.726Z,99717.34
2022-12-25T17:14:43.165Z,99706.16
2022-12-25T17:17:10.528Z,99748.13
2022-12-25T17:19:37.931Z,99744.56
2022-12-25T17:22:07.232Z,99730.63
2022-12-25T17:24:36.196Z,99734.03
2022-12-25T17:27:03.694Z,99735.81
2022-12-25T17:29:31.797Z,99728.84
2022-12-25T17:31:59.224Z,99732.34
2022-12-25T17:34:26.647Z,99729.63
2022-12-25T17:36:54.093Z,99717.34
2022-12-25T17:39:22.775Z,99725.25
2022-12-25T17:41:50.348Z,99724.38
2022-12-25T17:44:17.767Z,99718.25
2022-12-25T17:46:45.171Z,99713.88
2022-12-25T17:49:14.966Z,99712.09
2022-12-25T17:51:42.383Z,99712.09
2022-12-25T17:54:09.752Z,99710.31
2022-12-25T17:56:38.551Z,99711.16
2022-12-25T17:59:07.969Z,99666.59
2022-12-25T18:01:35.905Z,99704.16
2022-12-25T18:04:03.476Z,99693.63
2022-12-25T18:06:30.992Z,99690.13
2022-12-25T18:08:58.514Z,99689.28
2022-12-25T18:11:29.070Z,99649.72
2022-12-25T18:13:59.578Z,99682.19
2022-12-25T18:16:27.566Z,99681.31
2022-12-25T18:18:55.045Z,99689.19
2022-12-25T18:21:22.817Z,99697.09
2022-12-25T18:23:50.383Z,99653.19
2022-12-25T18:26:17.812Z,99698.81
2022-12-25T18:28:45.255Z,99689.13
2022-12-25T18:31:14.702Z,99635.25
2022-12-25T18:33:42.128Z,99687.38
2022-12-25T18:36:09.764Z,99631.00
2022-12-25T18:38:37.152Z,99669.69
2022-12-25T18:41:05.195Z,99677.31
2022-12-25T18:43:52.095Z,99696.97
2022-12-25T18:46:23.790Z,99694.31
2022-12-25T18:48:51.546Z,99696.13
2022-12-25T18:51:18.990Z,99690.81
2022-12-25T18:53:46.399Z,99691.69
2022-12-25T18:56:15.434Z,99631.59
2022-12-25T18:58:42.828Z,99694.31
2022-12-25T19:01:11.816Z,99677.66
2022-12-25T19:03:40.575Z,99683.75
2022-12-25T19:06:08.210Z,99649.47
2022-12-25T19:08:35.605Z,99671.47
2022-12-25T19:11:07.405Z,99674.09
2022-12-25T19:13:34.819Z,99675.78
2022-12-25T19:16:02.293Z,99676.72
2022-12-25T19:18:29.692Z,99674.97
2022-12-25T19:21:01.482Z,99663.56
2022-12-25T19:23:28.868Z,99660.16
2022-12-25T19:25:56.261Z,99677.53
2022-12-25T19:28:24.926Z,99674.88
2022-12-25T19:30:52.832Z,99671.41
2022-12-25T19:33:20.316Z,99677.53
2022-12-25T19:35:48.816Z,99665.22
2022-12-25T19:38:17.542Z,99661.75
2022-12-25T19:40:59.991Z,99659.13
2022-12-25T19:43:28.246Z,99660.88
2022-12-25T19:45:55.694Z,99653.00
2022-12-25T19:48:23.119Z,99659.94
2022-12-25T19:50:50.672Z,99657.31
2022-12-25T19:53:21.345Z,99623.03
2022-12-25T19:55:48.730Z,99645.91
2022-12-25T19:58:16.129Z,99645.03
2022-12-25T20:00:43.568Z,99652.06
2022-12-25T20:03:11.047Z,99652.00
2022-12-25T20:05:38.436Z,99645.22
2022-12-25T20:08:05.893Z,99654.63
2022-12-25T20:10:34.600Z,99656.34
2022-12-25T20:13:01.986Z,99654.63
2022-12-25T20:15:29.402Z,99651.09
2022-12-25T20:17:56.795Z,99660.75
2022-12-25T20:20:24.207Z,99658.97
2022-12-25T20:22:51.626Z,99664.25
2022-12-25T20:25:19.019Z,99655.47
2022-12-25T20:27:47.727Z,99661.59
2022-12-25T20:30:15.256Z,99654.63
2022-12-25T20:32:49.783Z,99651.09
2022-12-25T20:35:17.869Z,99657.19
2022-12-25T20:37:45.332Z,99671.19
2022-12-25T20:40:13.472Z,99675.53
2022-12-25T20:42:40.937Z,99680.78
2022-12-25T20:45:12.323Z,99673.97
2022-12-25T20:47:39.737Z,99692.16
2022-12-25T20:50:08.336Z,99687.84
2022-12-25T20:52:35.756Z,99652.78
2022-12-25T20:55:03.171Z,99680.78
2022-12-25T20:57:30.565Z,99686.91
2022-12-25T20:59:57.958Z,99683.41
2022-12-25T21:02:34.454Z,99686.03
2022-12-25T21:05:03.423Z,99665.88
2022-12-25T21:07:30.817Z,99670.25
2022-12-25T21:09:59.073Z,99673.75
2022-12-25T21:12:26.487Z,99677.25
2022-12-25T21:14:53.879Z,99680.72
2022-12-25T21:17:21.392Z,99683.34
2022-12-25T21:19:50.127Z,99682.44
2022-12-25T21:22:17.520Z,99637.34
2022-12-25T21:24:44.939Z,99693.03
2022-12-25T21:27:12.358Z,99691.22
2022-12-25T21:29:39.949Z,99665.66
2022-12-25T21:32:25.413Z,99687.78
2022-12-25T21:34:54.109Z,99684.47
2022-12-25T21:37:21.535Z,99693.03
2022-12-25T21:39:49.892Z,99676.38
2022-12-25T21:42:17.336Z,99246.44
2022-12-25T21:44:44.753Z,99677.19
2022-12-25T21:47:12.151Z,99688.59
2022-12-25T21:49:57.325Z,99683.28
2022-12-25T21:52:26.043Z,99685.97
2022-12-25T21:54:53.516Z,99658.72
2022-12-25T21:57:20.925Z,99689.47
2022-12-25T21:59:48.824Z,99648.34
2022-12-25T22:02:16.380Z,99680.66
2022-12-25T22:04:44.074Z,99675.38
2022-12-25T22:07:17.767Z,99685.91
2022-12-25T22:09:47.175Z,99644.97
2022-12-25T22:12:34.488Z,99693.78
2022-12-25T22:15:06.379Z,99689.47
2022-12-25T22:17:52.541Z,99679.22
2022-12-25T22:20:21.227Z,99648.47
2022-12-25T22:22:48.721Z,99695.53
2022-12-25T22:25:17.686Z,99685.06
2022-12-25T22:27:45.824Z,99693.94
2022-12-25T22:30:14.428Z,99690.19
2022-12-25T22:32:41.927Z,99637.28
2022-12-25T22:35:09.897Z,99704.97
2022-12-25T22:37:37.408Z,99694.13
2022-12-25T22:40:05.829Z,99705.19
2022-12-25T22:42:34.954Z,99562.00
2022-12-25T22:45:02.453Z,99714.69
2022-12-25T22:47:29.867Z,99669.50
2022-12-25T22:49:57.262Z,99718.94
2022-12-25T22:52:24.702Z,99713.75
2022-12-25T22:54:52.094Z,99707.63
2022-12-25T22:57:19.517Z,99701.00
2022-12-25T22:59:48.212Z,99714.50
2022-12-25T23:02:15.829Z,99711.94
2022-12-25T23:04:43.524Z,99709.25
2022-12-25T23:07:14.134Z,99696.16
2022-12-25T23:09:41.571Z,99704.84
2022-12-25T23:12:29.002Z,99703.00
2022-12-25T23:14:56.966Z,99699.44
2022-12-25T23:17:38.360Z,99700.31
2022-12-25T23:20:24.152Z,99694.19
2022-12-25T23:23:09.003Z,99701.16
2022-12-25T23:25:54.149Z,99710.78
2022-12-25T23:28:35.722Z,99700.53
2022-12-25T23:31:04.482Z,99722.31
2022-12-25T23:33:31.878Z,99724.88
2022-12-25T23:35:59.281Z,99733.50
2022-12-25T23:38:26.701Z,99735.22
2022-12-25T23:40:54.065Z,99712.47
2022-12-25T23:43:21.496Z,99737.84
2022-12-25T23:45:48.906Z,99736.00
2022-12-25T23:48:17.625Z,99675.34
2022-12-25T23:50:44.994Z,99736.94
2022-12-25T23:53:12.412Z,99735.16
2022-12-25T23:55:42.077Z,99748.28
2022-12-25T23:58:09.525Z,99738.63
